createdAt,value
2019-04-14T00:00:29.302Z,99.90
2019-04-14T00:02:59.908Z,99.90
2019-04-14T00:05:31.428Z,99.90
2019-04-14T00:07:58.411Z,99.90
2019-04-14T00:10:26.857Z,99.90
2019-04-14T00:12:55.638Z,99.90
2019-04-14T00:15:33.072Z,99.90
2019-04-14T00:17:54.744Z,99.90
2019-04-14T00:20:23.132Z,99.90
2019-04-14T00:22:51.525Z,99.90
2019-04-14T00:25:19.920Z,99.90
2019-04-14T00:27:48.321Z,99.90
2019-04-14T00:30:18.833Z,99.90
2019-04-14T00:32:48.928Z,99.90
2019-04-14T00:35:25.589Z,99.90
2019-04-14T00:38:11.156Z,99.90
2019-04-14T00:40:58.299Z,99.90
2019-04-14T00:43:33.016Z,99.90
2019-04-14T00:46:21.078Z,99.90
2019-04-14T00:48:50.138Z,99.90
2019-04-14T00:51:19.820Z,99.90
2019-04-14T00:53:49.143Z,99.90
2019-04-14T00:56:19.359Z,99.90
2019-04-14T00:58:49.597Z,99.90
2019-04-14T01:01:18.153Z,99.90
2019-04-14T01:03:46.556Z,99.90
2019-04-14T01:06:14.963Z,99.90
2019-04-14T01:08:44.463Z,99.90
2019-04-14T01:11:13.829Z,99.90
2019-04-14T01:13:43.931Z,99.90
2019-04-14T01:16:17.615Z,99.90
2019-04-14T01:18:43.067Z,99.90
2019-04-14T01:21:11.527Z,99.90
2019-04-14T01:23:41.161Z,99.90
2019-04-14T01:26:10.193Z,99.90
2019-04-14T01:28:39.608Z,99.90
2019-04-14T01:31:09.760Z,99.90
2019-04-14T01:33:40.051Z,99.90
2019-04-14T01:36:09.020Z,99.90
2019-04-14T01:38:38.444Z,99.90
2019-04-14T01:41:08.495Z,99.90
2019-04-14T01:43:38.446Z,99.90
2019-04-14T01:46:14.639Z,99.90
2019-04-14T01:48:38.839Z,99.90
2019-04-14T01:51:09.270Z,99.90
2019-04-14T01:53:57.397Z,99.90
2019-04-14T01:56:42.798Z,99.90
2019-04-14T01:59:32.664Z,99.90
2019-04-14T02:02:02.919Z,99.90
2019-04-14T02:04:31.934Z,99.90
2019-04-14T02:07:01.616Z,99.90
2019-04-14T02:09:31.614Z,99.90
2019-04-14T02:12:01.638Z,99.90
2019-04-14T02:14:32.176Z,99.90
2019-04-14T02:17:03.128Z,99.90
2019-04-14T02:19:31.272Z,99.90
2019-04-14T02:22:00.652Z,99.90
2019-04-14T02:24:30.988Z,99.90
2019-04-14T02:27:01.157Z,99.90
2019-04-14T02:29:30.181Z,99.90
2019-04-14T02:32:30.355Z,99.90
2019-04-14T02:35:11.144Z,99.90
2019-04-14T02:40:08.457Z,99.90
2019-04-14T02:42:34.199Z,99.90
2019-04-14T02:44:59.959Z,99.90
2019-04-14T02:47:44.771Z,99.90
2019-04-14T02:50:00.816Z,99.90
2019-04-14T02:52:29.907Z,99.90
2019-04-14T02:57:22.982Z,99.90
2019-04-14T02:59:58.874Z,99.90
2019-04-14T03:05:00.004Z,99.90
2019-04-14T03:10:12.609Z,99.90
2019-04-14T03:17:47.429Z,99.90
2019-04-14T03:20:27.946Z,99.90
2019-04-14T03:22:55.704Z,99.90
2019-04-14T03:25:27.753Z,99.90
2019-04-14T03:28:26.241Z,99.90
2019-04-14T03:38:36.570Z,99.90
2019-04-14T03:41:08.538Z,99.90
2019-04-14T03:43:35.507Z,99.90
2019-04-14T03:46:14.285Z,99.90
2019-04-14T03:51:10.164Z,99.90
2019-04-14T03:53:38.508Z,99.90
2019-04-14T03:55:55.585Z,99.90
2019-04-14T03:58:20.582Z,99.90
2019-04-14T04:00:49.549Z,99.90
2019-04-14T04:03:17.943Z,99.90
2019-04-14T04:05:46.352Z,99.90
2019-04-14T04:08:15.720Z,99.90
2019-04-14T04:10:46.578Z,99.90
2019-04-14T04:13:15.424Z,99.90
2019-04-14T04:15:45.389Z,99.90
2019-04-14T04:18:28.768Z,99.90
2019-04-14T04:20:59.422Z,99.90
2019-04-14T04:23:44.709Z,99.90
2019-04-14T04:26:15.325Z,99.90
2019-04-14T04:29:00.540Z,99.90
2019-04-14T04:31:34.758Z,99.90
2019-04-14T04:34:11.942Z,99.90
2019-04-14T04:36:48.781Z,99.90
2019-04-14T04:39:22.093Z,99.90
2019-04-14T04:41:51.496Z,99.90
2019-04-14T04:44:20.528Z,99.90
2019-04-14T04:46:48.941Z,99.90
2019-04-14T04:49:22.602Z,99.90
2019-04-14T04:51:48.572Z,99.90
2019-04-14T04:54:17.521Z,99.90
2019-04-14T04:56:45.917Z,99.90
2019-04-14T04:59:14.870Z,99.90
2019-04-14T05:01:45.147Z,99.90
2019-04-14T05:04:15.326Z,99.90
2019-04-14T05:06:59.249Z,99.90
2019-04-14T05:09:38.806Z,99.90
2019-04-14T05:12:19.469Z,99.90
2019-04-14T05:15:03.334Z,99.90
2019-04-14T05:17:34.230Z,99.90
2019-04-14T05:20:03.184Z,99.90
2019-04-14T05:22:31.714Z,99.90
2019-04-14T05:25:01.360Z,99.90
2019-04-14T05:27:30.412Z,99.90
2019-04-14T05:29:58.805Z,99.90
2019-04-14T05:32:28.281Z,99.90
2019-04-14T05:34:58.612Z,99.90
2019-04-14T05:37:27.619Z,99.90
2019-04-14T05:39:56.966Z,99.90
2019-04-14T05:42:27.214Z,99.90
2019-04-14T05:44:55.998Z,99.90
2019-04-14T05:47:24.410Z,99.90
2019-04-14T05:49:54.957Z,99.90
2019-04-14T05:52:23.170Z,99.90
2019-04-14T05:54:51.573Z,99.90
2019-04-14T05:57:19.995Z,99.90
2019-04-14T05:59:48.437Z,99.90
2019-04-14T06:02:17.723Z,99.90
2019-04-14T06:04:48.150Z,99.90
2019-04-14T06:07:17.196Z,99.90
2019-04-14T06:09:45.601Z,99.90
2019-04-14T06:12:13.977Z,99.90
2019-04-14T06:14:42.405Z,99.90
2019-04-14T06:17:10.794Z,99.90
2019-04-14T06:19:40.640Z,99.90
2019-04-14T06:22:09.301Z,99.90
2019-04-14T06:24:37.708Z,99.90
2019-04-14T06:27:06.105Z,99.90
2019-04-14T06:29:34.485Z,99.90
2019-04-14T06:32:07.467Z,99.90
2019-04-14T06:34:46.286Z,99.90
2019-04-14T06:37:18.989Z,99.90
2019-04-14T06:39:51.726Z,99.90
2019-04-14T06:42:20.109Z,99.90
2019-04-14T06:44:48.511Z,99.90
2019-04-14T06:47:16.902Z,99.90
2019-04-14T06:49:49.187Z,99.90
2019-04-14T06:52:15.413Z,99.90
2019-04-14T06:54:43.800Z,99.90
2019-04-14T06:57:12.195Z,99.90
2019-04-14T06:59:40.593Z,99.90
2019-04-14T07:02:08.981Z,99.90
2019-04-14T07:04:37.375Z,99.90
2019-04-14T07:07:05.784Z,99.90
2019-04-14T07:09:34.174Z,99.90
2019-04-14T07:12:02.645Z,99.90
2019-04-14T07:14:32.030Z,99.90
2019-04-14T07:17:01.034Z,99.90
2019-04-14T07:19:29.418Z,99.90
2019-04-14T07:21:57.816Z,99.90
2019-04-14T07:24:26.213Z,99.90
2019-04-14T07:26:54.607Z,99.90
2019-04-14T07:29:24.638Z,99.90
2019-04-14T07:32:00.677Z,99.90
2019-04-14T07:34:36.529Z,99.90
2019-04-14T07:37:22.876Z,99.90
2019-04-14T07:39:52.927Z,99.90
2019-04-14T07:42:28.770Z,99.90
2019-04-14T07:44:58.823Z,99.90
2019-04-14T07:47:37.950Z,99.90
2019-04-14T07:50:21.395Z,99.90
2019-04-14T07:52:51.412Z,99.90
2019-04-14T07:55:21.458Z,99.90
2019-04-14T07:57:57.354Z,99.90
2019-04-14T08:00:30.482Z,99.90
2019-04-14T08:03:12.713Z,99.90
2019-04-14T08:05:45.069Z,99.90
2019-04-14T08:08:13.706Z,99.90
2019-04-14T08:10:42.111Z,99.90
2019-04-14T08:13:10.496Z,99.90
2019-04-14T08:15:38.898Z,99.90
2019-04-14T08:18:07.369Z,99.90
2019-04-14T08:20:35.753Z,99.90
2019-04-14T08:23:04.158Z,99.90
2019-04-14T08:25:32.553Z,99.90
2019-04-14T08:28:00.945Z,99.90
2019-04-14T08:30:29.424Z,99.90
2019-04-14T08:32:57.809Z,99.90
2019-04-14T08:35:26.201Z,99.90
2019-04-14T08:37:54.630Z,99.90
2019-04-14T08:40:23.012Z,99.90
2019-04-14T08:43:09.533Z,99.90
2019-04-14T08:45:56.052Z,99.90
2019-04-14T08:48:29.069Z,99.90
2019-04-14T08:50:59.104Z,99.90
2019-04-14T08:53:31.871Z,99.90
2019-04-14T08:56:10.370Z,99.90
2019-04-14T08:58:40.417Z,99.90
2019-04-14T09:01:10.519Z,99.90
2019-04-14T09:03:43.266Z,99.90
2019-04-14T09:06:13.312Z,99.80
2019-04-14T09:08:43.342Z,99.40
2019-04-14T09:11:16.105Z,98.60
2019-04-14T09:13:44.500Z,99.20
2019-04-14T09:16:12.892Z,98.00
2019-04-14T09:18:41.294Z,98.60
2019-04-14T09:21:09.700Z,96.90
2019-04-14T09:23:38.094Z,97.20
2019-04-14T09:26:06.493Z,95.10
2019-04-14T09:28:34.968Z,94.10
2019-04-14T09:31:03.358Z,94.90
2019-04-14T09:33:31.796Z,92.10
2019-04-14T09:36:00.180Z,89.70
2019-04-14T09:38:28.575Z,90.50
2019-04-14T09:40:56.983Z,88.10
2019-04-14T09:43:25.379Z,87.30
2019-04-14T09:45:53.782Z,85.70
2019-04-14T09:48:22.194Z,94.50
2019-04-14T09:50:50.601Z,91.70
2019-04-14T09:53:18.997Z,90.20
2019-04-14T09:55:47.389Z,88.70
2019-04-14T09:58:15.790Z,86.30
2019-04-14T10:00:44.957Z,88.60
2019-04-14T10:03:13.352Z,88.50
2019-04-14T10:05:41.751Z,90.60
2019-04-14T10:08:10.170Z,81.50
2019-04-14T10:10:38.625Z,75.00
2019-04-14T10:13:07.097Z,71.10
2019-04-14T10:15:35.496Z,72.60
2019-04-14T10:18:03.902Z,71.60
2019-04-14T10:20:32.296Z,70.00
2019-04-14T10:23:00.692Z,67.60
2019-04-14T10:25:29.094Z,67.00
2019-04-14T10:27:57.493Z,61.20
2019-04-14T10:30:25.895Z,58.00
2019-04-14T10:32:54.303Z,57.90
2019-04-14T10:35:22.702Z,60.10
2019-04-14T10:37:51.110Z,58.90
2019-04-14T10:40:19.508Z,60.30
2019-04-14T10:42:47.923Z,63.00
2019-04-14T10:45:18.372Z,60.00
2019-04-14T10:47:46.452Z,59.40
2019-04-14T10:50:14.926Z,61.00
2019-04-14T10:52:43.328Z,62.90
2019-04-14T10:55:11.785Z,63.90
2019-04-14T10:57:41.663Z,63.00
2019-04-14T11:00:15.293Z,59.30
2019-04-14T11:02:43.697Z,58.30
2019-04-14T11:05:12.244Z,56.30
2019-04-14T11:07:41.417Z,56.60
2019-04-14T11:10:11.509Z,57.90
2019-04-14T11:12:39.906Z,56.80
2019-04-14T11:15:10.548Z,58.60
2019-04-14T11:17:38.941Z,59.60
2019-04-14T11:20:08.190Z,63.50
2019-04-14T11:22:36.682Z,63.40
2019-04-14T11:25:06.696Z,60.10
2019-04-14T11:27:35.089Z,60.20
2019-04-14T11:30:06.651Z,58.50
2019-04-14T11:32:53.198Z,55.10
2019-04-14T11:35:26.261Z,54.40
2019-04-14T11:37:59.307Z,50.30
2019-04-14T11:40:29.354Z,51.90
2019-04-14T11:42:57.759Z,53.20
2019-04-14T11:45:26.503Z,52.20
2019-04-14T11:47:54.973Z,49.20
2019-04-14T11:50:23.379Z,46.70
2019-04-14T11:52:51.765Z,46.30
2019-04-14T11:55:20.178Z,47.60
2019-04-14T11:57:48.579Z,45.90
2019-04-14T12:00:27.581Z,46.60
2019-04-14T12:03:00.137Z,45.60
2019-04-14T12:05:48.576Z,45.80
2019-04-14T12:08:24.544Z,47.80
2019-04-14T12:10:52.945Z,47.70
2019-04-14T12:13:21.604Z,47.70
2019-04-14T12:15:49.999Z,46.30
2019-04-14T12:18:18.396Z,45.40
2019-04-14T12:20:46.789Z,47.10
2019-04-14T12:23:16.172Z,47.90
2019-04-14T12:25:45.266Z,47.10
2019-04-14T12:28:13.669Z,48.10
2019-04-14T12:30:42.213Z,48.80
2019-04-14T12:33:10.607Z,48.50
2019-04-14T12:35:39.001Z,48.40
2019-04-14T12:38:07.456Z,48.00
2019-04-14T12:40:36.904Z,48.40
2019-04-14T12:43:23.693Z,46.20
2019-04-14T12:45:56.704Z,47.00
2019-04-14T12:48:32.697Z,48.30
2019-04-14T12:51:05.889Z,48.70
2019-04-14T12:53:34.278Z,49.30
2019-04-14T12:56:02.673Z,50.50
2019-04-14T12:58:35.685Z,51.20
2019-04-14T13:01:05.788Z,50.40
2019-04-14T13:03:35.756Z,47.90
2019-04-14T13:06:04.154Z,47.80
2019-04-14T13:08:32.609Z,46.70
2019-04-14T13:11:01.032Z,46.10
2019-04-14T13:13:29.504Z,47.20
2019-04-14T13:15:58.168Z,47.40
2019-04-14T13:18:26.576Z,47.30
2019-04-14T13:20:55.008Z,48.40
2019-04-14T13:23:23.449Z,48.90
2019-04-14T13:25:51.844Z,48.40
2019-04-14T13:28:20.237Z,49.40
2019-04-14T13:30:50.117Z,49.70
2019-04-14T13:33:18.507Z,49.90
2019-04-14T13:35:46.900Z,49.50
2019-04-14T13:38:15.297Z,48.80
2019-04-14T13:40:43.718Z,47.20
2019-04-14T13:43:12.115Z,47.30
2019-04-14T13:45:40.509Z,47.90
2019-04-14T13:48:08.916Z,46.40
2019-04-14T13:50:37.318Z,46.70
2019-04-14T13:53:05.722Z,47.30
2019-04-14T13:55:34.104Z,47.80
2019-04-14T13:58:02.499Z,47.90
2019-04-14T14:00:31.968Z,46.80
2019-04-14T14:03:01.205Z,48.50
2019-04-14T14:05:29.606Z,46.30
2019-04-14T14:07:58.021Z,45.60
2019-04-14T14:10:26.418Z,45.40
2019-04-14T14:12:56.445Z,46.80
2019-04-14T14:15:29.328Z,46.90
2019-04-14T14:18:15.966Z,46.00
2019-04-14T14:20:51.788Z,47.20
2019-04-14T14:23:21.833Z,48.10
2019-04-14T14:25:57.940Z,46.50
2019-04-14T14:28:26.353Z,47.50
2019-04-14T14:30:54.746Z,47.90
2019-04-14T14:33:23.134Z,47.10
2019-04-14T14:35:51.538Z,47.30
2019-04-14T14:38:19.931Z,49.00
2019-04-14T14:40:49.367Z,49.40
2019-04-14T14:43:18.323Z,48.20
2019-04-14T14:46:00.364Z,49.20
2019-04-14T14:48:30.400Z,47.10
2019-04-14T14:51:00.441Z,47.60
2019-04-14T14:53:28.850Z,47.60
2019-04-14T14:55:57.269Z,48.50
2019-04-14T14:58:25.657Z,48.60
2019-04-14T15:00:54.046Z,48.80
2019-04-14T15:03:22.439Z,48.20
2019-04-14T15:05:50.837Z,48.80
2019-04-14T15:08:19.273Z,49.40
2019-04-14T15:10:47.705Z,50.40
2019-04-14T15:13:16.114Z,51.40
2019-04-14T15:15:44.500Z,50.60
2019-04-14T15:18:12.889Z,49.20
2019-04-14T15:20:41.284Z,50.10
2019-04-14T15:23:09.673Z,49.90
2019-04-14T15:25:38.075Z,49.20
2019-04-14T15:28:06.469Z,50.80
2019-04-14T15:30:34.937Z,50.70
2019-04-14T15:33:03.340Z,51.70
2019-04-14T15:35:32.678Z,52.40
2019-04-14T15:38:01.069Z,52.50
2019-04-14T15:40:29.460Z,52.60
2019-04-14T15:42:57.860Z,52.40
2019-04-14T15:45:26.269Z,52.70
2019-04-14T15:47:54.669Z,52.30
2019-04-14T15:50:23.058Z,52.50
2019-04-14T15:52:51.464Z,53.60
2019-04-14T15:55:19.871Z,54.10
2019-04-14T15:57:59.156Z,52.10
2019-04-14T16:00:29.196Z,52.50
2019-04-14T16:02:59.229Z,53.70
2019-04-14T16:05:29.273Z,54.10
2019-04-14T16:08:02.268Z,54.20
2019-04-14T16:10:35.098Z,54.40
2019-04-14T16:13:16.826Z,55.30
2019-04-14T16:15:46.860Z,54.70
2019-04-14T16:18:22.809Z,53.40
2019-04-14T16:20:51.212Z,54.90
2019-04-14T16:23:19.600Z,55.20
2019-04-14T16:25:49.651Z,56.40
2019-04-14T16:28:36.080Z,56.50
2019-04-14T16:31:24.010Z,57.60
2019-04-14T16:33:57.001Z,59.80
2019-04-14T16:36:25.485Z,61.20
2019-04-14T16:38:53.901Z,61.40
2019-04-14T16:41:22.297Z,63.40
2019-04-14T16:43:50.692Z,62.00
2019-04-14T16:46:19.085Z,63.30
2019-04-14T16:48:47.484Z,65.30
2019-04-14T16:51:17.521Z,65.70
2019-04-14T16:53:47.624Z,65.70
2019-04-14T16:56:34.115Z,66.10
2019-04-14T16:59:04.173Z,66.00
2019-04-14T17:01:34.204Z,66.60
2019-04-14T17:04:02.650Z,65.70
2019-04-14T17:06:31.367Z,66.90
2019-04-14T17:08:59.788Z,68.00
2019-04-14T17:11:28.191Z,69.30
2019-04-14T17:13:58.319Z,70.10
2019-04-14T17:16:31.327Z,71.70
2019-04-14T17:19:09.920Z,72.90
2019-04-14T17:21:39.961Z,73.20
2019-04-14T17:24:16.756Z,75.30
2019-04-14T17:26:44.385Z,75.60
2019-04-14T17:29:14.431Z,77.10
2019-04-14T17:31:59.308Z,78.00
2019-04-14T17:34:35.306Z,78.10
2019-04-14T17:37:08.316Z,78.70
2019-04-14T17:39:53.572Z,80.00
2019-04-14T17:42:26.353Z,82.20
2019-04-14T17:45:02.404Z,85.20
2019-04-14T17:47:44.479Z,86.00
2019-04-14T17:50:39.754Z,87.70
2019-04-14T17:52:58.885Z,90.00
2019-04-14T17:55:31.762Z,90.40
2019-04-14T17:58:01.859Z,90.50
2019-04-14T18:00:43.889Z,91.10
2019-04-14T18:03:14.025Z,91.60
2019-04-14T18:05:52.630Z,92.40
2019-04-14T18:08:28.684Z,92.80
2019-04-14T18:11:15.208Z,93.50
2019-04-14T18:13:45.257Z,94.30
2019-04-14T18:16:31.618Z,94.70
2019-04-14T18:19:10.783Z,95.10
2019-04-14T18:21:39.198Z,95.70
2019-04-14T18:24:07.577Z,96.10
2019-04-14T18:26:36.043Z,96.60
2019-04-14T18:29:23.219Z,97.10
2019-04-14T18:31:53.265Z,97.70
2019-04-14T18:34:26.012Z,97.50
2019-04-14T18:36:58.768Z,97.50
2019-04-14T18:39:44.825Z,97.70
2019-04-14T18:42:32.976Z,98.30
2019-04-14T18:45:18.064Z,98.30
2019-04-14T18:47:51.009Z,98.50
2019-04-14T18:50:36.057Z,99.00
2019-04-14T18:53:18.418Z,99.10
2019-04-14T18:55:48.466Z,99.20
2019-04-14T18:58:18.569Z,99.50
2019-04-14T19:00:55.364Z,99.90
2019-04-14T19:03:23.756Z,99.90
2019-04-14T19:05:52.144Z,99.90
2019-04-14T19:08:20.536Z,99.90
2019-04-14T19:10:50.565Z,99.90
2019-04-14T19:13:20.595Z,99.90
2019-04-14T19:15:59.276Z,99.90
2019-04-14T19:18:29.321Z,99.90
2019-04-14T19:20:59.340Z,99.90
2019-04-14T19:23:28.410Z,99.90
2019-04-14T19:25:56.801Z,99.90
2019-04-14T19:28:25.193Z,99.90
2019-04-14T19:30:53.617Z,99.90
2019-04-14T19:33:22.002Z,99.90
2019-04-14T19:35:50.394Z,99.90
2019-04-14T19:38:18.781Z,99.90
2019-04-14T19:40:47.160Z,99.90
2019-04-14T19:43:23.595Z,99.90
2019-04-14T19:45:45.672Z,99.90
2019-04-14T19:48:14.081Z,99.90
2019-04-14T19:50:42.480Z,99.90
2019-04-14T19:53:10.945Z,99.90
2019-04-14T19:55:39.352Z,99.90
2019-04-14T19:58:07.756Z,99.90
2019-04-14T20:00:36.166Z,99.90
2019-04-14T20:03:04.613Z,99.90
2019-04-14T20:05:33.005Z,99.90
2019-04-14T20:08:01.404Z,99.90
2019-04-14T20:10:29.808Z,99.90
2019-04-14T20:12:58.260Z,99.90
2019-04-14T20:15:37.509Z,99.90
2019-04-14T20:18:10.691Z,99.90
2019-04-14T20:20:52.973Z,99.90
2019-04-14T20:23:28.896Z,99.90
2019-04-14T20:26:15.573Z,99.90
2019-04-14T20:28:48.561Z,99.90
2019-04-14T20:31:21.065Z,99.90
2019-04-14T20:33:49.459Z,99.90
2019-04-14T20:36:17.842Z,99.90
2019-04-14T20:38:46.241Z,99.90
2019-04-14T20:41:14.629Z,99.90
2019-04-14T20:43:43.115Z,99.90
2019-04-14T20:46:11.516Z,99.90
2019-04-14T20:48:39.900Z,99.90
2019-04-14T20:51:08.353Z,99.90
2019-04-14T20:53:36.816Z,99.90
2019-04-14T20:56:05.357Z,99.90
2019-04-14T20:58:33.747Z,99.90
2019-04-14T21:01:02.133Z,99.90
2019-04-14T21:03:32.156Z,99.90
2019-04-14T21:06:02.181Z,99.90
2019-04-14T21:08:48.388Z,99.90
2019-04-14T21:11:18.413Z,99.90
2019-04-14T21:13:51.715Z,99.90
2019-04-14T21:16:22.601Z,99.90
2019-04-14T21:18:52.625Z,99.90
2019-04-14T21:21:22.668Z,99.90
2019-04-14T21:24:04.396Z,99.90
2019-04-14T21:26:37.372Z,99.90
2019-04-14T21:29:10.377Z,99.90
2019-04-14T21:31:46.432Z,99.90
2019-04-14T21:34:16.468Z,99.90
2019-04-14T21:36:58.560Z,99.90
2019-04-14T21:39:44.813Z,99.90
2019-04-14T21:42:14.992Z,99.90
2019-04-14T21:44:43.382Z,99.90
2019-04-14T21:47:11.765Z,99.90
2019-04-14T21:49:40.165Z,99.90
2019-04-14T21:52:10.192Z,99.90
2019-04-14T21:54:40.234Z,99.90
2019-04-14T21:57:13.021Z,99.90
2019-04-14T21:59:58.449Z,99.90
2019-04-14T22:02:46.556Z,99.90
2019-04-14T22:05:32.789Z,99.90
2019-04-14T22:08:08.756Z,99.90
2019-04-14T22:10:44.906Z,99.90
2019-04-14T22:13:13.278Z,99.90
2019-04-14T22:15:41.652Z,99.90
2019-04-14T22:18:10.049Z,99.90
2019-04-14T22:20:38.508Z,99.90
2019-04-14T22:23:08.550Z,99.90
2019-04-14T22:25:37.713Z,99.90
2019-04-14T22:28:06.176Z,99.90
2019-04-14T22:30:34.568Z,99.90
2019-04-14T22:33:04.605Z,99.90
2019-04-14T22:35:33.017Z,99.90
2019-04-14T22:38:01.404Z,99.90
2019-04-14T22:40:29.877Z,99.90
2019-04-14T22:42:58.265Z,99.90
2019-04-14T22:45:26.722Z,99.90
2019-04-14T22:47:55.112Z,99.90
2019-04-14T22:50:23.492Z,99.90
2019-04-14T22:52:51.896Z,99.90
2019-04-14T22:55:20.309Z,99.90
2019-04-14T22:57:48.696Z,99.90
2019-04-14T23:00:26.652Z,99.90
2019-04-14T23:03:05.446Z,99.90
2019-04-14T23:05:35.544Z,99.90
2019-04-14T23:08:05.569Z,99.90
2019-04-14T23:10:35.620Z,99.90
2019-04-14T23:13:14.371Z,99.90
2019-04-14T23:15:53.748Z,99.90
2019-04-14T23:18:26.522Z,99.90
2019-04-14T23:21:11.602Z,99.90
2019-04-14T23:23:44.289Z,99.90
2019-04-14T23:26:12.689Z,99.90
2019-04-14T23:28:41.081Z,99.90
2019-04-14T23:31:09.472Z,99.90
2019-04-14T23:33:37.864Z,99.90
2019-04-14T23:36:06.254Z,99.90
2019-04-14T23:38:34.648Z,99.90
2019-04-14T23:41:03.038Z,99.90
2019-04-14T23:43:31.420Z,99.90
2019-04-14T23:45:59.821Z,99.90
2019-04-14T23:48:28.209Z,99.90
2019-04-14T23:50:56.600Z,99.90
2019-04-14T23:53:25.001Z,99.90
2019-04-14T23:55:53.462Z,99.90
2019-04-14T23:58:21.916Z,99.90
